createdAt,value
2023-03-21T00:01:36.927Z,48.40
2023-03-21T00:05:54.152Z,47.93
2023-03-21T00:10:16.658Z,48.27
2023-03-21T00:14:33.376Z,48.95
2023-03-21T00:18:52.859Z,50.58
2023-03-21T00:23:09.155Z,50.88
2023-03-21T00:27:56.906Z,50.86
2023-03-21T00:32:01.568Z,50.20
2023-03-21T00:36:18.074Z,50.86
2023-03-21T00:40:40.489Z,50.77
2023-03-21T00:44:56.961Z,52.20
2023-03-21T00:49:13.288Z,50.42
2023-03-21T00:53:31.390Z,51.39
2023-03-21T00:57:56.112Z,51.77
2023-03-21T01:02:27.084Z,51.01
2023-03-21T01:06:44.367Z,51.00
2023-03-21T01:11:04.080Z,50.88
2023-03-21T01:15:20.326Z,51.59
2023-03-21T01:19:50.633Z,52.03
2023-03-21T01:24:08.530Z,52.13
2023-03-21T01:28:28.214Z,52.62
2023-03-21T01:32:44.488Z,52.76
2023-03-21T01:37:00.966Z,52.73
2023-03-21T01:41:42.073Z,53.06
2023-03-21T01:46:49.665Z,52.75
2023-03-21T01:51:13.591Z,52.92
2023-03-21T01:55:30.101Z,53.39
2023-03-21T01:59:50.478Z,52.65
2023-03-21T02:04:09.320Z,53.24
2023-03-21T02:08:36.802Z,53.41
2023-03-21T02:12:57.765Z,53.15
2023-03-21T02:17:38.481Z,52.87
2023-03-21T02:22:19.569Z,52.62
2023-03-21T02:27:19.085Z,53.15
2023-03-21T02:32:18.194Z,53.40
2023-03-21T02:37:03.624Z,53.07
2023-03-21T02:41:47.101Z,52.91
2023-03-21T02:46:17.100Z,53.93
2023-03-21T02:50:48.616Z,55.27
2023-03-21T02:55:06.977Z,54.08
2023-03-21T02:59:25.596Z,54.14
2023-03-21T03:03:42.861Z,54.79
2023-03-21T03:08:41.270Z,54.24
2023-03-21T03:13:19.837Z,54.54
2023-03-21T03:18:00.194Z,54.61
2023-03-21T03:22:23.889Z,54.78
2023-03-21T03:27:04.881Z,55.04
2023-03-21T03:31:29.649Z,54.63
2023-03-21T03:35:53.044Z,54.44
2023-03-21T03:40:26.943Z,53.81
2023-03-21T03:44:43.489Z,54.32
2023-03-21T03:49:05.758Z,54.25
2023-03-21T03:53:29.851Z,53.81
2023-03-21T03:57:46.197Z,53.70
2023-03-21T04:02:03.379Z,53.27
2023-03-21T04:06:20.275Z,53.22
2023-03-21T04:10:36.844Z,54.12
2023-03-21T04:14:55.018Z,53.95
2023-03-21T04:19:13.282Z,54.05
2023-03-21T04:23:30.166Z,54.54
2023-03-21T04:27:48.705Z,54.46
2023-03-21T04:32:05.231Z,54.49
2023-03-21T04:36:30.904Z,54.38
2023-03-21T04:40:47.131Z,54.35
2023-03-21T04:45:03.810Z,54.03
2023-03-21T04:49:20.145Z,55.04
2023-03-21T04:53:38.524Z,54.48
2023-03-21T04:57:54.925Z,53.57
2023-03-21T05:02:11.228Z,53.51
2023-03-21T05:06:28.280Z,53.42
2023-03-21T05:10:44.710Z,53.96
2023-03-21T05:15:01.154Z,55.34
2023-03-21T05:19:18.219Z,55.47
2023-03-21T05:23:38.423Z,55.31
2023-03-21T05:27:58.231Z,56.88
2023-03-21T05:32:14.482Z,58.67
2023-03-21T05:36:34.222Z,57.21
2023-03-21T05:40:51.255Z,58.47
2023-03-21T05:45:07.807Z,57.30
2023-03-21T05:49:24.836Z,56.68
2023-03-21T05:53:41.030Z,56.86
2023-03-21T05:57:57.283Z,56.96
2023-03-21T06:02:13.661Z,57.15
2023-03-21T06:06:30.076Z,57.90
2023-03-21T06:10:46.401Z,56.93
2023-03-21T06:15:04.669Z,56.87
2023-03-21T06:19:22.036Z,57.24
2023-03-21T06:23:38.318Z,57.12
2023-03-21T06:27:54.528Z,56.85
2023-03-21T06:32:10.884Z,55.17
2023-03-21T06:36:27.182Z,55.74
2023-03-21T06:40:43.450Z,55.29
2023-03-21T06:44:59.656Z,54.14
2023-03-21T06:49:16.096Z,54.33
2023-03-21T06:53:35.677Z,53.89
2023-03-21T06:57:54.396Z,52.97
2023-03-21T07:02:13.706Z,51.29
2023-03-21T07:06:30.432Z,50.88
2023-03-21T07:10:47.463Z,52.16
2023-03-21T07:15:04.711Z,52.05
2023-03-21T07:19:21.002Z,54.06
2023-03-21T07:23:38.512Z,54.05
2023-03-21T07:27:54.844Z,53.89
2023-03-21T07:32:11.928Z,53.70
2023-03-21T07:36:28.491Z,53.30
2023-03-21T07:40:45.960Z,52.99
2023-03-21T07:45:02.176Z,52.89
2023-03-21T07:49:18.424Z,54.11
2023-03-21T07:53:34.632Z,54.33
2023-03-21T07:57:51.987Z,53.51
2023-03-21T08:02:10.433Z,52.79
2023-03-21T08:06:29.377Z,52.91
2023-03-21T08:10:45.868Z,52.52
2023-03-21T08:15:02.131Z,52.50
2023-03-21T08:19:20.980Z,52.48
2023-03-21T08:23:37.368Z,51.85
2023-03-21T08:27:54.026Z,51.12
2023-03-21T08:32:12.546Z,50.78
2023-03-21T08:36:30.586Z,50.57
2023-03-21T08:40:46.810Z,50.69
2023-03-21T08:45:03.101Z,51.10
2023-03-21T08:49:19.468Z,51.20
2023-03-21T08:53:35.721Z,52.02
2023-03-21T08:57:53.978Z,50.12
2023-03-21T09:02:14.036Z,49.88
2023-03-21T09:06:30.648Z,50.42
2023-03-21T09:10:46.955Z,50.18
2023-03-21T09:15:04.783Z,50.09
2023-03-21T09:19:24.034Z,49.59
2023-03-21T09:23:41.762Z,48.76
2023-03-21T09:27:58.426Z,50.13
2023-03-21T09:32:14.646Z,48.72
2023-03-21T09:36:32.240Z,48.57
2023-03-21T09:41:05.269Z,46.53
2023-03-21T09:45:42.455Z,46.51
2023-03-21T09:50:20.701Z,46.27
2023-03-21T09:54:39.628Z,45.67
2023-03-21T09:58:59.706Z,45.12
2023-03-21T10:03:26.484Z,43.31
2023-03-21T10:07:51.192Z,41.51
2023-03-21T10:12:15.083Z,39.96
2023-03-21T10:16:40.360Z,38.44
2023-03-21T10:20:57.378Z,38.25
2023-03-21T10:25:21.498Z,36.10
2023-03-21T10:29:46.103Z,38.74
2023-03-21T10:34:14.524Z,37.34
2023-03-21T10:38:30.951Z,36.58
2023-03-21T10:42:47.188Z,34.81
2023-03-21T10:47:11.112Z,34.33
2023-03-21T10:51:33.875Z,33.98
2023-03-21T10:55:54.640Z,33.61
2023-03-21T11:00:19.361Z,33.65
2023-03-21T11:04:37.280Z,32.09
2023-03-21T11:08:58.010Z,31.57
2023-03-21T11:13:23.845Z,29.82
2023-03-21T11:17:40.565Z,29.18
2023-03-21T11:21:59.237Z,29.24
2023-03-21T11:26:37.194Z,28.55
2023-03-21T11:30:58.659Z,31.19
2023-03-21T11:35:26.405Z,30.83
2023-03-21T11:39:44.403Z,30.92
2023-03-21T11:44:02.448Z,31.84
2023-03-21T11:48:18.745Z,30.87
2023-03-21T11:52:43.853Z,29.53
2023-03-21T11:57:33.418Z,29.20
2023-03-21T12:01:57.529Z,29.38
2023-03-21T12:06:37.890Z,28.28
2023-03-21T12:11:07.749Z,28.51
2023-03-21T12:15:46.952Z,28.73
2023-03-21T12:20:22.894Z,29.80
2023-03-21T12:25:17.585Z,30.65
2023-03-21T12:30:00.167Z,31.16
2023-03-21T12:34:33.701Z,31.55
2023-03-21T12:39:09.905Z,30.29
2023-03-21T12:43:50.772Z,29.82
2023-03-21T12:48:23.916Z,30.25
2023-03-21T12:52:42.598Z,30.53
2023-03-21T12:57:06.924Z,30.76
2023-03-21T13:01:25.374Z,27.24
2023-03-21T13:05:46.836Z,25.66
2023-03-21T13:10:14.219Z,25.39
2023-03-21T13:14:37.150Z,27.70
2023-03-21T13:19:35.830Z,26.82
2023-03-21T13:24:17.582Z,26.20
2023-03-21T13:28:38.024Z,26.81
2023-03-21T13:33:08.653Z,27.25
2023-03-21T13:37:26.901Z,27.59
2023-03-21T13:41:47.432Z,27.23
2023-03-21T13:46:25.722Z,27.60
2023-03-21T13:50:54.926Z,27.72
2023-03-21T13:55:20.763Z,27.78
2023-03-21T13:59:46.440Z,26.57
2023-03-21T14:04:31.989Z,27.04
2023-03-21T14:08:58.705Z,25.19
2023-03-21T14:13:25.053Z,26.05
2023-03-21T14:17:57.894Z,24.68
2023-03-21T14:22:14.828Z,24.73
2023-03-21T14:26:36.570Z,24.94
2023-03-21T14:31:02.188Z,26.03
2023-03-21T14:35:21.157Z,26.24
2023-03-21T14:39:39.476Z,27.53
2023-03-21T14:44:29.122Z,26.52
2023-03-21T14:48:47.570Z,25.35
2023-03-21T14:53:04.142Z,25.26
2023-03-21T14:57:23.565Z,25.60
2023-03-21T15:01:42.028Z,25.13
2023-03-21T15:05:59.338Z,25.78
2023-03-21T15:10:18.223Z,26.17
2023-03-21T15:14:36.708Z,26.26
2023-03-21T15:18:55.341Z,25.63
2023-03-21T15:23:19.449Z,25.21
2023-03-21T15:27:46.690Z,26.04
2023-03-21T15:32:13.225Z,24.76
2023-03-21T15:36:38.900Z,25.97
2023-03-21T15:41:33.046Z,26.15
2023-03-21T15:45:56.954Z,25.54
2023-03-21T15:50:34.910Z,26.23
2023-03-21T15:54:59.682Z,27.22
2023-03-21T15:59:20.155Z,28.66
2023-03-21T16:03:42.753Z,27.86
2023-03-21T16:08:20.146Z,27.17
2023-03-21T16:12:36.448Z,25.37
2023-03-21T16:16:53.106Z,26.02
2023-03-21T16:21:15.926Z,23.87
2023-03-21T16:25:32.754Z,22.73
2023-03-21T16:29:50.997Z,21.00
2023-03-21T16:34:07.313Z,20.97
2023-03-21T16:38:23.858Z,21.23
2023-03-21T16:42:40.029Z,21.85
2023-03-21T16:46:56.283Z,22.52
2023-03-21T16:51:36.281Z,23.45
2023-03-21T16:55:52.849Z,25.58
2023-03-21T17:00:11.824Z,27.31
2023-03-21T17:04:30.186Z,27.83
2023-03-21T17:08:46.760Z,28.60
2023-03-21T17:13:02.971Z,29.71
2023-03-21T17:17:19.199Z,30.92
2023-03-21T17:21:35.447Z,31.13
2023-03-21T17:25:51.946Z,31.92
2023-03-21T17:30:16.850Z,32.19
2023-03-21T17:34:33.333Z,32.81
2023-03-21T17:38:49.753Z,33.17
2023-03-21T17:43:11.937Z,33.65
2023-03-21T17:47:30.023Z,33.62
2023-03-21T17:51:47.232Z,34.58
2023-03-21T17:56:03.579Z,34.08
2023-03-21T18:00:28.086Z,34.92
2023-03-21T18:04:44.280Z,35.65
2023-03-21T18:09:01.469Z,35.91
2023-03-21T18:13:17.658Z,36.54
2023-03-21T18:17:34.201Z,36.24
2023-03-21T18:21:50.554Z,35.50
2023-03-21T18:26:08.144Z,35.62
2023-03-21T18:30:46.933Z,35.47
2023-03-21T18:35:00.849Z,35.79
2023-03-21T18:39:17.710Z,35.66
2023-03-21T18:48:13.760Z,36.29
2023-03-21T18:52:30.302Z,36.98
2023-03-21T18:57:34.189Z,37.30
2023-03-21T19:01:28.009Z,37.03
2023-03-21T19:05:44.369Z,37.14
2023-03-21T19:10:17.002Z,37.46
2023-03-21T19:14:34.038Z,37.73
2023-03-21T19:18:54.853Z,37.87
2023-03-21T19:23:13.157Z,37.96
2023-03-21T19:27:29.306Z,38.44
2023-03-21T19:31:45.887Z,38.81
2023-03-21T19:36:15.378Z,38.79
2023-03-21T19:40:34.332Z,39.53
2023-03-21T19:44:50.586Z,39.78
2023-03-21T19:49:06.865Z,39.94
2023-03-21T19:53:23.212Z,40.69
2023-03-21T19:57:39.345Z,40.03
2023-03-21T20:02:00.950Z,40.51
2023-03-21T20:06:25.559Z,40.26
2023-03-21T20:10:42.392Z,40.25
2023-03-21T20:15:10.318Z,40.44
2023-03-21T20:19:31.934Z,40.48
2023-03-21T20:23:51.064Z,40.76
2023-03-21T20:28:16.162Z,41.30
2023-03-21T20:32:40.659Z,41.70
2023-03-21T20:36:58.162Z,41.83
2023-03-21T20:41:14.928Z,41.73
2023-03-21T20:45:31.611Z,41.34
2023-03-21T20:49:49.392Z,41.46
2023-03-21T20:54:06.245Z,41.97
2023-03-21T20:58:54.833Z,42.04
2023-03-21T21:02:59.745Z,42.10
2023-03-21T21:07:17.374Z,42.47
2023-03-21T21:16:11.792Z,43.02
2023-03-21T21:20:28.090Z,42.87
2023-03-21T21:24:45.122Z,43.25
2023-03-21T21:29:01.815Z,43.17
2023-03-21T21:33:18.250Z,43.38
2023-03-21T21:37:34.440Z,43.95
2023-03-21T21:41:50.851Z,44.43
2023-03-21T21:46:07.945Z,44.62
2023-03-21T21:50:24.702Z,44.53
2023-03-21T21:54:45.897Z,44.25
2023-03-21T21:59:02.296Z,44.27
2023-03-21T22:03:22.467Z,44.70
2023-03-21T22:07:39.381Z,44.18
2023-03-21T22:11:56.838Z,44.34
2023-03-21T22:16:13.433Z,44.68
2023-03-21T22:20:29.685Z,44.52
2023-03-21T22:24:46.154Z,45.40
2023-03-21T22:29:02.704Z,45.98
2023-03-21T22:33:20.246Z,45.36
2023-03-21T22:37:39.160Z,45.10
2023-03-21T22:42:01.699Z,45.53
2023-03-21T22:46:18.037Z,45.84
2023-03-21T22:50:34.376Z,46.30
2023-03-21T22:54:50.718Z,46.32
2023-03-21T22:59:07.024Z,46.53
2023-03-21T23:03:23.230Z,46.60
2023-03-21T23:07:39.716Z,46.90
2023-03-21T23:11:56.460Z,47.57
2023-03-21T23:16:12.672Z,48.47
2023-03-21T23:20:28.928Z,47.52
2023-03-21T23:24:45.524Z,47.72
2023-03-21T23:29:01.787Z,47.30
2023-03-21T23:33:18.013Z,48.42
2023-03-21T23:37:34.250Z,48.39
2023-03-21T23:41:50.558Z,49.45
2023-03-21T23:46:07.183Z,49.45
2023-03-21T23:50:23.430Z,49.50
2023-03-21T23:54:39.778Z,49.42
2023-03-21T23:58:57.290Z,49.48
